sensor_id;sensor_type;location;lat;lon;timestamp;P1;durP1;ratioP1;P2;durP2;ratioP2
10643;SDS011;5370;50.132;8.626;2023-01-23T00:01:36;8.87;;;7.33;;
10643;SDS011;5370;50.132;8.626;2023-01-23T00:04:02;9.80;;;6.07;;
10643;SDS011;5370;50.132;8.626;2023-01-23T00:06:28;8.27;;;6.60;;
10643;SDS011;5370;50.132;8.626;2023-01-23T00:08:54;10.43;;;8.43;;
10643;SDS011;5370;50.132;8.626;2023-01-23T00:11:21;11.53;;;8.30;;
10643;SDS011;5370;50.132;8.626;2023-01-23T00:13:49;8.43;;;5.70;;
10643;SDS011;5370;50.132;8.626;2023-01-23T00:16:16;11.30;;;8.07;;
10643;SDS011;5370;50.132;8.626;2023-01-23T00:18:46;10.50;;;7.97;;
10643;SDS011;5370;50.132;8.626;2023-01-23T00:21:17;10.70;;;6.67;;
10643;SDS011;5370;50.132;8.626;2023-01-23T00:23:49;9.70;;;8.10;;
10643;SDS011;5370;50.132;8.626;2023-01-23T00:26:17;9.43;;;6.93;;
10643;SDS011;5370;50.132;8.626;2023-01-23T00:28:45;9.93;;;7.43;;
10643;SDS011;5370;50.132;8.626;2023-01-23T00:31:12;9.67;;;6.70;;
10643;SDS011;5370;50.132;8.626;2023-01-23T00:33:39;8.33;;;6.90;;
10643;SDS011;5370;50.132;8.626;2023-01-23T00:36:06;9.57;;;7.43;;
10643;SDS011;5370;50.132;8.626;2023-01-23T00:38:32;9.83;;;7.30;;
10643;SDS011;5370;50.132;8.626;2023-01-23T00:40:58;8.63;;;7.33;;
10643;SDS011;5370;50.132;8.626;2023-01-23T00:43:23;8.43;;;6.87;;
10643;SDS011;5370;50.132;8.626;2023-01-23T00:45:49;10.07;;;7.13;;
10643;SDS011;5370;50.132;8.626;2023-01-23T00:48:15;9.90;;;7.20;;
10643;SDS011;5370;50.132;8.626;2023-01-23T00:50:41;9.23;;;6.27;;
10643;SDS011;5370;50.132;8.626;2023-01-23T00:53:07;9.10;;;7.20;;
10643;SDS011;5370;50.132;8.626;2023-01-23T00:55:32;9.20;;;6.03;;
10643;SDS011;5370;50.132;8.626;2023-01-23T00:57:58;10.43;;;7.03;;
10643;SDS011;5370;50.132;8.626;2023-01-23T01:00:24;9.40;;;7.50;;
10643;SDS011;5370;50.132;8.626;2023-01-23T01:02:50;10.37;;;7.00;;
10643;SDS011;5370;50.132;8.626;2023-01-23T01:05:15;8.97;;;7.03;;
10643;SDS011;5370;50.132;8.626;2023-01-23T01:07:42;9.87;;;7.83;;
10643;SDS011;5370;50.132;8.626;2023-01-23T01:10:09;8.73;;;6.23;;
10643;SDS011;5370;50.132;8.626;2023-01-23T01:12:35;10.57;;;7.33;;
10643;SDS011;5370;50.132;8.626;2023-01-23T01:15:01;8.27;;;7.23;;
10643;SDS011;5370;50.132;8.626;2023-01-23T01:17:27;9.03;;;6.83;;
10643;SDS011;5370;50.132;8.626;2023-01-23T01:19:53;8.73;;;6.33;;
10643;SDS011;5370;50.132;8.626;2023-01-23T01:22:19;9.97;;;6.53;;
10643;SDS011;5370;50.132;8.626;2023-01-23T01:24:44;10.67;;;7.27;;
10643;SDS011;5370;50.132;8.626;2023-01-23T01:27:10;9.23;;;6.90;;
10643;SDS011;5370;50.132;8.626;2023-01-23T01:29:36;9.03;;;6.57;;
10643;SDS011;5370;50.132;8.626;2023-01-23T01:32:01;9.43;;;7.30;;
10643;SDS011;5370;50.132;8.626;2023-01-23T01:34:27;10.60;;;8.13;;
10643;SDS011;5370;50.132;8.626;2023-01-23T01:36:53;10.10;;;7.67;;
10643;SDS011;5370;50.132;8.626;2023-01-23T01:39:18;9.97;;;7.60;;
10643;SDS011;5370;50.132;8.626;2023-01-23T01:41:44;12.17;;;8.23;;
10643;SDS011;5370;50.132;8.626;2023-01-23T01:44:16;10.90;;;8.43;;
10643;SDS011;5370;50.132;8.626;2023-01-23T01:46:43;9.50;;;7.00;;
10643;SDS011;5370;50.132;8.626;2023-01-23T01:49:43;12.13;;;8.50;;
10643;SDS011;5370;50.132;8.626;2023-01-23T01:52:03;11.60;;;6.73;;
10643;SDS011;5370;50.132;8.626;2023-01-23T01:54:40;12.33;;;8.27;;
10643;SDS011;5370;50.132;8.626;2023-01-23T01:59:53;11.30;;;8.60;;
10643;SDS011;5370;50.132;8.626;2023-01-23T02:02:22;11.77;;;8.13;;
10643;SDS011;5370;50.132;8.626;2023-01-23T02:04:54;11.13;;;8.67;;
10643;SDS011;5370;50.132;8.626;2023-01-23T02:07:38;11.00;;;8.17;;
10643;SDS011;5370;50.132;8.626;2023-01-23T02:10:07;11.20;;;8.73;;
10643;SDS011;5370;50.132;8.626;2023-01-23T02:12:33;10.97;;;7.27;;
10643;SDS011;5370;50.132;8.626;2023-01-23T02:15:00;13.17;;;9.23;;
10643;SDS011;5370;50.132;8.626;2023-01-23T02:17:28;12.00;;;8.77;;
10643;SDS011;5370;50.132;8.626;2023-01-23T02:25:27;12.53;;;7.87;;
10643;SDS011;5370;50.132;8.626;2023-01-23T02:28:04;12.00;;;8.67;;
10643;SDS011;5370;50.132;8.626;2023-01-23T02:30:31;10.60;;;7.13;;
10643;SDS011;5370;50.132;8.626;2023-01-23T02:33:09;12.90;;;8.67;;
10643;SDS011;5370;50.132;8.626;2023-01-23T02:35:55;12.73;;;8.40;;
10643;SDS011;5370;50.132;8.626;2023-01-23T02:38:21;12.87;;;8.33;;
10643;SDS011;5370;50.132;8.626;2023-01-23T02:40:53;11.73;;;8.50;;
10643;SDS011;5370;50.132;8.626;2023-01-23T02:43:22;12.10;;;7.83;;
10643;SDS011;5370;50.132;8.626;2023-01-23T02:45:54;12.57;;;8.90;;
10643;SDS011;5370;50.132;8.626;2023-01-23T02:48:20;12.50;;;9.53;;
10643;SDS011;5370;50.132;8.626;2023-01-23T02:50:45;14.57;;;10.07;;
10643;SDS011;5370;50.132;8.626;2023-01-23T02:53:11;14.83;;;9.50;;
10643;SDS011;5370;50.132;8.626;2023-01-23T02:55:37;12.23;;;9.77;;
10643;SDS011;5370;50.132;8.626;2023-01-23T02:58:07;12.80;;;8.23;;
10643;SDS011;5370;50.132;8.626;2023-01-23T03:00:51;13.20;;;9.80;;
10643;SDS011;5370;50.132;8.626;2023-01-23T03:03:16;18.80;;;10.53;;
10643;SDS011;5370;50.132;8.626;2023-01-23T03:05:42;12.20;;;8.63;;
10643;SDS011;5370;50.132;8.626;2023-01-23T03:08:08;10.87;;;8.60;;
10643;SDS011;5370;50.132;8.626;2023-01-23T03:10:33;15.43;;;11.13;;
10643;SDS011;5370;50.132;8.626;2023-01-23T03:12:59;11.97;;;9.27;;
10643;SDS011;5370;50.132;8.626;2023-01-23T03:15:31;13.73;;;9.67;;
10643;SDS011;5370;50.132;8.626;2023-01-23T03:17:58;12.57;;;8.93;;
10643;SDS011;5370;50.132;8.626;2023-01-23T03:20:24;15.07;;;10.33;;
10643;SDS011;5370;50.132;8.626;2023-01-23T03:22:51;15.90;;;10.57;;
10643;SDS011;5370;50.132;8.626;2023-01-23T03:25:17;13.50;;;9.97;;
10643;SDS011;5370;50.132;8.626;2023-01-23T03:27:43;12.60;;;8.77;;
10643;SDS011;5370;50.132;8.626;2023-01-23T03:30:12;14.17;;;9.30;;
10643;SDS011;5370;50.132;8.626;2023-01-23T03:32:45;11.23;;;8.17;;
10643;SDS011;5370;50.132;8.626;2023-01-23T03:35:11;12.80;;;9.10;;
10643;SDS011;5370;50.132;8.626;2023-01-23T03:37:40;11.17;;;8.63;;
10643;SDS011;5370;50.132;8.626;2023-01-23T03:40:20;12.53;;;8.07;;
10643;SDS011;5370;50.132;8.626;2023-01-23T03:43:05;14.00;;;9.27;;
10643;SDS011;5370;50.132;8.626;2023-01-23T03:45:31;11.27;;;8.33;;
10643;SDS011;5370;50.132;8.626;2023-01-23T03:47:57;11.87;;;9.00;;
10643;SDS011;5370;50.132;8.626;2023-01-23T03:50:22;11.43;;;8.33;;
10643;SDS011;5370;50.132;8.626;2023-01-23T03:52:48;10.40;;;8.00;;
10643;SDS011;5370;50.132;8.626;2023-01-23T03:55:14;11.10;;;7.90;;
10643;SDS011;5370;50.132;8.626;2023-01-23T03:57:39;10.23;;;7.40;;
10643;SDS011;5370;50.132;8.626;2023-01-23T04:00:05;9.07;;;7.10;;
10643;SDS011;5370;50.132;8.626;2023-01-23T04:02:31;11.77;;;8.10;;
10643;SDS011;5370;50.132;8.626;2023-01-23T04:04:57;13.33;;;8.57;;
10643;SDS011;5370;50.132;8.626;2023-01-23T04:07:23;8.00;;;5.90;;
10643;SDS011;5370;50.132;8.626;2023-01-23T04:09:48;9.53;;;6.37;;
10643;SDS011;5370;50.132;8.626;2023-01-23T04:12:14;9.33;;;6.97;;
10643;SDS011;5370;50.132;8.626;2023-01-23T04:14:39;8.63;;;6.23;;
10643;SDS011;5370;50.132;8.626;2023-01-23T04:17:05;11.73;;;7.23;;
10643;SDS011;5370;50.132;8.626;2023-01-23T04:19:32;9.97;;;7.27;;
10643;SDS011;5370;50.132;8.626;2023-01-23T04:21:59;9.27;;;6.87;;
10643;SDS011;5370;50.132;8.626;2023-01-23T04:24:25;10.10;;;7.17;;
10643;SDS011;5370;50.132;8.626;2023-01-23T04:26:51;10.53;;;7.83;;
10643;SDS011;5370;50.132;8.626;2023-01-23T04:29:17;9.67;;;7.63;;
10643;SDS011;5370;50.132;8.626;2023-01-23T04:31:43;10.63;;;7.63;;
10643;SDS011;5370;50.132;8.626;2023-01-23T04:34:09;9.23;;;7.57;;
10643;SDS011;5370;50.132;8.626;2023-01-23T04:36:34;8.70;;;6.33;;
10643;SDS011;5370;50.132;8.626;2023-01-23T04:39:00;7.70;;;5.30;;
10643;SDS011;5370;50.132;8.626;2023-01-23T04:41:27;8.33;;;6.67;;
10643;SDS011;5370;50.132;8.626;2023-01-23T04:43:53;8.83;;;5.70;;
10643;SDS011;5370;50.132;8.626;2023-01-23T04:46:19;9.70;;;6.60;;
10643;SDS011;5370;50.132;8.626;2023-01-23T04:48:45;10.90;;;7.40;;
10643;SDS011;5370;50.132;8.626;2023-01-23T04:51:10;9.77;;;5.93;;
10643;SDS011;5370;50.132;8.626;2023-01-23T04:53:36;10.40;;;6.27;;
10643;SDS011;5370;50.132;8.626;2023-01-23T04:56:02;10.83;;;7.00;;
10643;SDS011;5370;50.132;8.626;2023-01-23T04:58:28;6.97;;;4.87;;
10643;SDS011;5370;50.132;8.626;2023-01-23T05:00:54;8.67;;;5.97;;
10643;SDS011;5370;50.132;8.626;2023-01-23T05:03:25;7.53;;;5.70;;
10643;SDS011;5370;50.132;8.626;2023-01-23T05:05:50;8.43;;;6.77;;
10643;SDS011;5370;50.132;8.626;2023-01-23T05:08:16;9.47;;;6.47;;
10643;SDS011;5370;50.132;8.626;2023-01-23T05:10:41;7.57;;;5.90;;
10643;SDS011;5370;50.132;8.626;2023-01-23T05:13:07;6.73;;;5.50;;
10643;SDS011;5370;50.132;8.626;2023-01-23T05:15:34;6.97;;;5.47;;
10643;SDS011;5370;50.132;8.626;2023-01-23T05:17:59;8.97;;;7.73;;
10643;SDS011;5370;50.132;8.626;2023-01-23T05:20:25;7.37;;;5.43;;
10643;SDS011;5370;50.132;8.626;2023-01-23T05:22:51;7.93;;;6.00;;
10643;SDS011;5370;50.132;8.626;2023-01-23T05:25:23;5.93;;;5.00;;
10643;SDS011;5370;50.132;8.626;2023-01-23T05:27:51;7.17;;;5.83;;
10643;SDS011;5370;50.132;8.626;2023-01-23T05:30:18;7.37;;;5.90;;
10643;SDS011;5370;50.132;8.626;2023-01-23T05:32:45;7.27;;;6.13;;
10643;SDS011;5370;50.132;8.626;2023-01-23T05:35:11;8.73;;;7.13;;
10643;SDS011;5370;50.132;8.626;2023-01-23T05:37:37;6.93;;;4.67;;
10643;SDS011;5370;50.132;8.626;2023-01-23T05:40:04;8.70;;;6.33;;
10643;SDS011;5370;50.132;8.626;2023-01-23T05:42:32;8.57;;;6.40;;
10643;SDS011;5370;50.132;8.626;2023-01-23T05:44:57;8.13;;;6.50;;
10643;SDS011;5370;50.132;8.626;2023-01-23T05:47:23;7.53;;;5.57;;
10643;SDS011;5370;50.132;8.626;2023-01-23T05:49:48;7.53;;;5.67;;
10643;SDS011;5370;50.132;8.626;2023-01-23T05:52:14;4.47;;;4.00;;
10643;SDS011;5370;50.132;8.626;2023-01-23T05:54:39;7.77;;;5.87;;
10643;SDS011;5370;50.132;8.626;2023-01-23T05:57:05;7.33;;;5.40;;
10643;SDS011;5370;50.132;8.626;2023-01-23T05:59:30;8.87;;;6.47;;
10643;SDS011;5370;50.132;8.626;2023-01-23T06:01:56;7.20;;;4.93;;
10643;SDS011;5370;50.132;8.626;2023-01-23T06:04:21;8.07;;;5.07;;
10643;SDS011;5370;50.132;8.626;2023-01-23T06:06:47;6.57;;;4.77;;
10643;SDS011;5370;50.132;8.626;2023-01-23T06:09:12;8.20;;;6.40;;
10643;SDS011;5370;50.132;8.626;2023-01-23T06:11:38;7.70;;;5.27;;
10643;SDS011;5370;50.132;8.626;2023-01-23T06:14:03;9.03;;;6.50;;
10643;SDS011;5370;50.132;8.626;2023-01-23T06:16:29;7.30;;;5.30;;
10643;SDS011;5370;50.132;8.626;2023-01-23T06:18:55;6.57;;;5.37;;
10643;SDS011;5370;50.132;8.626;2023-01-23T06:21:20;8.10;;;6.07;;
10643;SDS011;5370;50.132;8.626;2023-01-23T06:23:46;6.87;;;5.97;;
10643;SDS011;5370;50.132;8.626;2023-01-23T06:26:12;7.27;;;6.30;;
10643;SDS011;5370;50.132;8.626;2023-01-23T06:28:38;7.27;;;5.20;;
10643;SDS011;5370;50.132;8.626;2023-01-23T06:31:04;6.97;;;5.87;;
10643;SDS011;5370;50.132;8.626;2023-01-23T06:33:31;7.10;;;5.87;;
10643;SDS011;5370;50.132;8.626;2023-01-23T06:36:00;7.43;;;5.30;;
10643;SDS011;5370;50.132;8.626;2023-01-23T06:38:28;7.57;;;6.20;;
10643;SDS011;5370;50.132;8.626;2023-01-23T06:40:53;7.57;;;5.73;;
10643;SDS011;5370;50.132;8.626;2023-01-23T06:43:19;7.33;;;6.37;;
10643;SDS011;5370;50.132;8.626;2023-01-23T06:45:46;9.10;;;6.17;;
10643;SDS011;5370;50.132;8.626;2023-01-23T06:48:12;6.80;;;6.10;;
10643;SDS011;5370;50.132;8.626;2023-01-23T06:50:38;8.73;;;6.63;;
10643;SDS011;5370;50.132;8.626;2023-01-23T06:53:04;7.57;;;5.23;;
10643;SDS011;5370;50.132;8.626;2023-01-23T06:55:30;7.23;;;5.57;;
10643;SDS011;5370;50.132;8.626;2023-01-23T06:57:55;13.10;;;9.37;;
10643;SDS011;5370;50.132;8.626;2023-01-23T07:00:21;7.73;;;6.03;;
10643;SDS011;5370;50.132;8.626;2023-01-23T07:02:47;6.73;;;5.43;;
10643;SDS011;5370;50.132;8.626;2023-01-23T07:05:13;7.63;;;6.73;;
10643;SDS011;5370;50.132;8.626;2023-01-23T07:07:38;8.03;;;6.30;;
10643;SDS011;5370;50.132;8.626;2023-01-23T07:10:04;7.97;;;6.50;;
10643;SDS011;5370;50.132;8.626;2023-01-23T07:12:30;7.90;;;6.23;;
10643;SDS011;5370;50.132;8.626;2023-01-23T07:14:56;8.00;;;6.53;;
10643;SDS011;5370;50.132;8.626;2023-01-23T07:17:21;6.37;;;5.70;;
10643;SDS011;5370;50.132;8.626;2023-01-23T07:19:47;8.80;;;6.07;;
10643;SDS011;5370;50.132;8.626;2023-01-23T07:22:15;7.53;;;6.60;;
10643;SDS011;5370;50.132;8.626;2023-01-23T07:24:42;7.93;;;6.10;;
10643;SDS011;5370;50.132;8.626;2023-01-23T07:27:08;10.40;;;5.40;;
10643;SDS011;5370;50.132;8.626;2023-01-23T07:29:33;8.00;;;6.47;;
10643;SDS011;5370;50.132;8.626;2023-01-23T07:31:59;7.70;;;6.47;;
10643;SDS011;5370;50.132;8.626;2023-01-23T07:34:25;7.63;;;6.30;;
10643;SDS011;5370;50.132;8.626;2023-01-23T07:36:50;7.93;;;7.13;;
10643;SDS011;5370;50.132;8.626;2023-01-23T07:39:16;7.73;;;6.97;;
10643;SDS011;5370;50.132;8.626;2023-01-23T07:41:42;7.57;;;6.73;;
10643;SDS011;5370;50.132;8.626;2023-01-23T07:44:07;8.50;;;6.83;;
10643;SDS011;5370;50.132;8.626;2023-01-23T07:46:41;8.00;;;6.20;;
10643;SDS011;5370;50.132;8.626;2023-01-23T07:49:07;10.63;;;6.67;;
10643;SDS011;5370;50.132;8.626;2023-01-23T07:51:33;8.23;;;6.63;;
10643;SDS011;5370;50.132;8.626;2023-01-23T07:53:59;10.23;;;6.17;;
10643;SDS011;5370;50.132;8.626;2023-01-23T07:56:25;6.83;;;5.93;;
10643;SDS011;5370;50.132;8.626;2023-01-23T07:58:50;7.63;;;6.23;;
10643;SDS011;5370;50.132;8.626;2023-01-23T08:01:16;7.60;;;6.43;;
10643;SDS011;5370;50.132;8.626;2023-01-23T08:03:43;7.00;;;5.97;;
10643;SDS011;5370;50.132;8.626;2023-01-23T08:06:09;6.97;;;5.33;;
10643;SDS011;5370;50.132;8.626;2023-01-23T08:08:34;7.40;;;5.13;;
10643;SDS011;5370;50.132;8.626;2023-01-23T08:11:04;5.90;;;5.20;;
10643;SDS011;5370;50.132;8.626;2023-01-23T08:13:30;8.90;;;6.40;;
10643;SDS011;5370;50.132;8.626;2023-01-23T08:15:56;8.63;;;5.80;;
10643;SDS011;5370;50.132;8.626;2023-01-23T08:18:22;7.40;;;6.33;;
10643;SDS011;5370;50.132;8.626;2023-01-23T08:20:54;7.83;;;6.03;;
10643;SDS011;5370;50.132;8.626;2023-01-23T08:23:24;6.83;;;5.60;;
10643;SDS011;5370;50.132;8.626;2023-01-23T08:25:54;8.90;;;5.67;;
10643;SDS011;5370;50.132;8.626;2023-01-23T08:28:20;6.67;;;5.43;;
10643;SDS011;5370;50.132;8.626;2023-01-23T08:30:46;5.87;;;4.70;;
10643;SDS011;5370;50.132;8.626;2023-01-23T08:33:12;5.63;;;3.77;;
10643;SDS011;5370;50.132;8.626;2023-01-23T08:35:38;6.53;;;5.63;;
10643;SDS011;5370;50.132;8.626;2023-01-23T08:38:04;6.77;;;6.07;;
10643;SDS011;5370;50.132;8.626;2023-01-23T08:40:32;6.60;;;5.03;;
10643;SDS011;5370;50.132;8.626;2023-01-23T08:42:57;6.37;;;5.50;;
10643;SDS011;5370;50.132;8.626;2023-01-23T08:45:23;12.53;;;6.53;;
10643;SDS011;5370;50.132;8.626;2023-01-23T08:47:49;7.13;;;5.83;;
10643;SDS011;5370;50.132;8.626;2023-01-23T08:50:15;10.97;;;7.70;;
10643;SDS011;5370;50.132;8.626;2023-01-23T08:52:40;7.93;;;6.20;;
10643;SDS011;5370;50.132;8.626;2023-01-23T08:55:06;8.07;;;6.57;;
10643;SDS011;5370;50.132;8.626;2023-01-23T08:57:32;8.87;;;6.60;;
10643;SDS011;5370;50.132;8.626;2023-01-23T08:59:58;7.30;;;5.87;;
10643;SDS011;5370;50.132;8.626;2023-01-23T09:02:23;7.10;;;5.53;;
10643;SDS011;5370;50.132;8.626;2023-01-23T09:04:49;7.13;;;5.47;;
10643;SDS011;5370;50.132;8.626;2023-01-23T09:07:14;7.90;;;7.07;;
10643;SDS011;5370;50.132;8.626;2023-01-23T09:09:40;7.13;;;5.97;;
10643;SDS011;5370;50.132;8.626;2023-01-23T09:12:05;6.57;;;5.10;;
10643;SDS011;5370;50.132;8.626;2023-01-23T09:14:32;7.70;;;6.60;;
10643;SDS011;5370;50.132;8.626;2023-01-23T09:16:57;7.30;;;5.13;;
10643;SDS011;5370;50.132;8.626;2023-01-23T09:19:23;7.50;;;5.70;;
10643;SDS011;5370;50.132;8.626;2023-01-23T09:21:51;7.23;;;5.83;;
10643;SDS011;5370;50.132;8.626;2023-01-23T09:24:17;7.50;;;5.83;;
10643;SDS011;5370;50.132;8.626;2023-01-23T09:26:42;6.47;;;5.23;;
10643;SDS011;5370;50.132;8.626;2023-01-23T09:29:08;14.40;;;10.93;;
10643;SDS011;5370;50.132;8.626;2023-01-23T09:31:33;6.87;;;5.03;;
10643;SDS011;5370;50.132;8.626;2023-01-23T09:33:59;7.53;;;6.13;;
10643;SDS011;5370;50.132;8.626;2023-01-23T09:36:27;8.20;;;6.53;;
10643;SDS011;5370;50.132;8.626;2023-01-23T09:38:52;7.17;;;6.20;;
10643;SDS011;5370;50.132;8.626;2023-01-23T09:41:19;7.77;;;5.33;;
10643;SDS011;5370;50.132;8.626;2023-01-23T09:43:50;6.20;;;5.07;;
10643;SDS011;5370;50.132;8.626;2023-01-23T09:49:23;7.70;;;5.63;;
10643;SDS011;5370;50.132;8.626;2023-01-23T09:52:00;5.73;;;5.10;;
10643;SDS011;5370;50.132;8.626;2023-01-23T09:57:15;11.07;;;4.67;;
10643;SDS011;5370;50.132;8.626;2023-01-23T10:00:00;6.97;;;4.60;;
10643;SDS011;5370;50.132;8.626;2023-01-23T10:02:30;6.60;;;5.77;;
10643;SDS011;5370;50.132;8.626;2023-01-23T10:04:57;7.33;;;5.40;;
10643;SDS011;5370;50.132;8.626;2023-01-23T10:07:33;8.37;;;5.53;;
10643;SDS011;5370;50.132;8.626;2023-01-23T10:15:18;6.30;;;4.67;;
10643;SDS011;5370;50.132;8.626;2023-01-23T10:18:11;8.07;;;6.40;;
10643;SDS011;5370;50.132;8.626;2023-01-23T10:23:13;11.10;;;6.23;;
10643;SDS011;5370;50.132;8.626;2023-01-23T10:25:42;10.63;;;6.10;;
10643;SDS011;5370;50.132;8.626;2023-01-23T10:31:00;7.20;;;6.37;;
10643;SDS011;5370;50.132;8.626;2023-01-23T10:33:43;9.40;;;6.17;;
10643;SDS011;5370;50.132;8.626;2023-01-23T10:36:18;9.67;;;6.00;;
10643;SDS011;5370;50.132;8.626;2023-01-23T10:38:53;10.03;;;5.93;;
10643;SDS011;5370;50.132;8.626;2023-01-23T10:41:30;4.90;;;4.17;;
10643;SDS011;5370;50.132;8.626;2023-01-23T10:44:00;8.33;;;6.50;;
10643;SDS011;5370;50.132;8.626;2023-01-23T10:46:33;6.20;;;4.50;;
10643;SDS011;5370;50.132;8.626;2023-01-23T10:49:06;7.40;;;5.63;;
10643;SDS011;5370;50.132;8.626;2023-01-23T10:51:33;7.27;;;4.40;;
10643;SDS011;5370;50.132;8.626;2023-01-23T10:59:32;7.53;;;4.93;;
10643;SDS011;5370;50.132;8.626;2023-01-23T11:02:21;6.67;;;5.37;;
10643;SDS011;5370;50.132;8.626;2023-01-23T11:04:52;6.90;;;5.27;;
10643;SDS011;5370;50.132;8.626;2023-01-23T11:09:58;7.43;;;5.80;;
10643;SDS011;5370;50.132;8.626;2023-01-23T11:12:34;7.20;;;5.53;;
10643;SDS011;5370;50.132;8.626;2023-01-23T11:15:25;4.83;;;4.23;;
10643;SDS011;5370;50.132;8.626;2023-01-23T11:17:58;8.87;;;6.17;;
10643;SDS011;5370;50.132;8.626;2023-01-23T11:27:57;6.97;;;4.50;;
10643;SDS011;5370;50.132;8.626;2023-01-23T11:30:40;9.27;;;5.20;;
10643;SDS011;5370;50.132;8.626;2023-01-23T11:35:49;7.70;;;4.97;;
10643;SDS011;5370;50.132;8.626;2023-01-23T11:38:30;6.20;;;4.80;;
10643;SDS011;5370;50.132;8.626;2023-01-23T11:41:07;9.57;;;5.23;;
10643;SDS011;5370;50.132;8.626;2023-01-23T11:43:35;6.33;;;4.73;;
10643;SDS011;5370;50.132;8.626;2023-01-23T11:46:16;7.77;;;4.80;;
10643;SDS011;5370;50.132;8.626;2023-01-23T11:49:02;6.47;;;4.97;;
10643;SDS011;5370;50.132;8.626;2023-01-23T11:51:35;9.83;;;5.23;;
10643;SDS011;5370;50.132;8.626;2023-01-23T11:54:16;6.90;;;5.17;;
10643;SDS011;5370;50.132;8.626;2023-01-23T11:57:01;4.17;;;3.63;;
10643;SDS011;5370;50.132;8.626;2023-01-23T11:59:43;5.80;;;3.70;;
10643;SDS011;5370;50.132;8.626;2023-01-23T12:02:39;7.53;;;4.50;;
10643;SDS011;5370;50.132;8.626;2023-01-23T12:08:10;5.90;;;4.83;;
10643;SDS011;5370;50.132;8.626;2023-01-23T12:11:14;5.80;;;4.93;;
10643;SDS011;5370;50.132;8.626;2023-01-23T12:25:36;7.50;;;4.27;;
10643;SDS011;5370;50.132;8.626;2023-01-23T12:28:16;4.83;;;4.27;;
10643;SDS011;5370;50.132;8.626;2023-01-23T12:42:22;10.17;;;5.83;;
10643;SDS011;5370;50.132;8.626;2023-01-23T12:45:25;6.83;;;5.07;;
10643;SDS011;5370;50.132;8.626;2023-01-23T12:53:20;7.50;;;4.77;;
10643;SDS011;5370;50.132;8.626;2023-01-23T12:58:21;9.10;;;6.60;;
10643;SDS011;5370;50.132;8.626;2023-01-23T13:00:57;8.37;;;6.97;;
10643;SDS011;5370;50.132;8.626;2023-01-23T13:06:29;8.23;;;4.83;;
10643;SDS011;5370;50.132;8.626;2023-01-23T13:16:58;8.27;;;6.10;;
10643;SDS011;5370;50.132;8.626;2023-01-23T13:19:28;7.93;;;6.47;;
10643;SDS011;5370;50.132;8.626;2023-01-23T13:24:53;9.67;;;6.17;;
10643;SDS011;5370;50.132;8.626;2023-01-23T13:27:35;15.77;;;8.40;;
10643;SDS011;5370;50.132;8.626;2023-01-23T13:32:47;13.30;;;8.13;;
10643;SDS011;5370;50.132;8.626;2023-01-23T13:43:54;16.97;;;10.20;;
10643;SDS011;5370;50.132;8.626;2023-01-23T13:52:40;7.20;;;4.93;;
10643;SDS011;5370;50.132;8.626;2023-01-23T13:55:29;7.73;;;5.27;;
10643;SDS011;5370;50.132;8.626;2023-01-23T13:58:21;11.43;;;6.30;;
10643;SDS011;5370;50.132;8.626;2023-01-23T14:00:50;6.57;;;5.30;;
10643;SDS011;5370;50.132;8.626;2023-01-23T14:03:48;13.43;;;6.70;;
10643;SDS011;5370;50.132;8.626;2023-01-23T14:06:36;7.53;;;5.50;;
10643;SDS011;5370;50.132;8.626;2023-01-23T14:09:03;6.30;;;4.57;;
10643;SDS011;5370;50.132;8.626;2023-01-23T14:11:56;5.90;;;5.17;;
10643;SDS011;5370;50.132;8.626;2023-01-23T14:14:22;14.93;;;7.40;;
10643;SDS011;5370;50.132;8.626;2023-01-23T14:17:06;9.30;;;6.00;;
10643;SDS011;5370;50.132;8.626;2023-01-23T14:19:33;7.73;;;5.63;;
10643;SDS011;5370;50.132;8.626;2023-01-23T14:22:04;5.87;;;5.23;;
10643;SDS011;5370;50.132;8.626;2023-01-23T14:27:21;6.07;;;4.47;;
10643;SDS011;5370;50.132;8.626;2023-01-23T14:30:16;6.13;;;3.90;;
10643;SDS011;5370;50.132;8.626;2023-01-23T14:32:42;8.63;;;5.67;;
10643;SDS011;5370;50.132;8.626;2023-01-23T14:37:41;6.13;;;4.40;;
10643;SDS011;5370;50.132;8.626;2023-01-23T14:40:16;8.17;;;6.47;;
10643;SDS011;5370;50.132;8.626;2023-01-23T14:42:43;9.43;;;6.57;;
10643;SDS011;5370;50.132;8.626;2023-01-23T14:45:10;8.83;;;4.53;;
10643;SDS011;5370;50.132;8.626;2023-01-23T14:47:46;8.60;;;5.93;;
10643;SDS011;5370;50.132;8.626;2023-01-23T14:50:17;4.43;;;3.63;;
10643;SDS011;5370;50.132;8.626;2023-01-23T14:52:44;5.20;;;4.53;;
10643;SDS011;5370;50.132;8.626;2023-01-23T14:55:21;7.47;;;5.63;;
10643;SDS011;5370;50.132;8.626;2023-01-23T14:57:48;8.10;;;4.50;;
10643;SDS011;5370;50.132;8.626;2023-01-23T15:00:16;8.23;;;5.30;;
10643;SDS011;5370;50.132;8.626;2023-01-23T15:02:43;5.73;;;4.87;;
10643;SDS011;5370;50.132;8.626;2023-01-23T15:10:30;8.70;;;5.87;;
10643;SDS011;5370;50.132;8.626;2023-01-23T15:13:00;7.27;;;4.90;;
10643;SDS011;5370;50.132;8.626;2023-01-23T15:15:29;8.83;;;5.83;;
10643;SDS011;5370;50.132;8.626;2023-01-23T15:17:56;6.67;;;4.43;;
10643;SDS011;5370;50.132;8.626;2023-01-23T15:22:55;8.93;;;5.57;;
10643;SDS011;5370;50.132;8.626;2023-01-23T15:25:31;9.57;;;6.40;;
10643;SDS011;5370;50.132;8.626;2023-01-23T15:27:57;10.80;;;7.30;;
10643;SDS011;5370;50.132;8.626;2023-01-23T15:32:57;8.80;;;6.57;;
10643;SDS011;5370;50.132;8.626;2023-01-23T15:35:29;10.60;;;7.17;;
10643;SDS011;5370;50.132;8.626;2023-01-23T15:37:56;7.93;;;5.10;;
10643;SDS011;5370;50.132;8.626;2023-01-23T15:40:24;8.30;;;5.57;;
10643;SDS011;5370;50.132;8.626;2023-01-23T15:45:38;8.60;;;4.37;;
10643;SDS011;5370;50.132;8.626;2023-01-23T15:48:03;9.97;;;6.03;;
10643;SDS011;5370;50.132;8.626;2023-01-23T15:50:29;7.70;;;5.33;;
10643;SDS011;5370;50.132;8.626;2023-01-23T15:52:55;6.90;;;4.80;;
10643;SDS011;5370;50.132;8.626;2023-01-23T15:55:21;8.43;;;6.20;;
10643;SDS011;5370;50.132;8.626;2023-01-23T15:57:49;13.33;;;7.93;;
10643;SDS011;5370;50.132;8.626;2023-01-23T16:00:17;10.70;;;7.47;;
10643;SDS011;5370;50.132;8.626;2023-01-23T16:02:45;12.93;;;7.30;;
10643;SDS011;5370;50.132;8.626;2023-01-23T16:05:10;8.97;;;6.93;;
10643;SDS011;5370;50.132;8.626;2023-01-23T16:07:37;9.33;;;7.77;;
10643;SDS011;5370;50.132;8.626;2023-01-23T16:10:26;9.27;;;5.93;;
10643;SDS011;5370;50.132;8.626;2023-01-23T16:12:53;10.87;;;7.43;;
10643;SDS011;5370;50.132;8.626;2023-01-23T16:15:22;11.10;;;7.57;;
10643;SDS011;5370;50.132;8.626;2023-01-23T16:17:47;11.43;;;7.53;;
10643;SDS011;5370;50.132;8.626;2023-01-23T16:20:14;8.47;;;5.50;;
10643;SDS011;5370;50.132;8.626;2023-01-23T16:22:42;10.73;;;8.23;;
10643;SDS011;5370;50.132;8.626;2023-01-23T16:25:18;10.67;;;7.93;;
10643;SDS011;5370;50.132;8.626;2023-01-23T16:27:49;11.50;;;8.17;;
10643;SDS011;5370;50.132;8.626;2023-01-23T16:30:16;12.30;;;8.47;;
10643;SDS011;5370;50.132;8.626;2023-01-23T16:32:42;7.63;;;6.00;;
10643;SDS011;5370;50.132;8.626;2023-01-23T16:35:08;10.40;;;7.67;;
10643;SDS011;5370;50.132;8.626;2023-01-23T16:37:39;10.67;;;7.30;;
10643;SDS011;5370;50.132;8.626;2023-01-23T16:40:13;10.47;;;7.40;;
10643;SDS011;5370;50.132;8.626;2023-01-23T16:42:42;10.87;;;8.03;;
10643;SDS011;5370;50.132;8.626;2023-01-23T16:45:28;9.60;;;5.50;;
10643;SDS011;5370;50.132;8.626;2023-01-23T16:47:55;7.37;;;5.57;;
10643;SDS011;5370;50.132;8.626;2023-01-23T16:50:22;7.63;;;5.47;;
10643;SDS011;5370;50.132;8.626;2023-01-23T16:53:05;9.07;;;6.47;;
10643;SDS011;5370;50.132;8.626;2023-01-23T16:55:35;10.83;;;7.53;;
10643;SDS011;5370;50.132;8.626;2023-01-23T16:58:03;8.33;;;6.20;;
10643;SDS011;5370;50.132;8.626;2023-01-23T17:00:30;8.70;;;5.97;;
10643;SDS011;5370;50.132;8.626;2023-01-23T17:02:58;11.07;;;8.10;;
10643;SDS011;5370;50.132;8.626;2023-01-23T17:05:25;18.80;;;10.73;;
10643;SDS011;5370;50.132;8.626;2023-01-23T17:07:51;10.90;;;7.53;;
10643;SDS011;5370;50.132;8.626;2023-01-23T17:10:18;8.73;;;5.90;;
10643;SDS011;5370;50.132;8.626;2023-01-23T17:12:50;4.67;;;3.87;;
10643;SDS011;5370;50.132;8.626;2023-01-23T17:15:28;12.23;;;6.60;;
10643;SDS011;5370;50.132;8.626;2023-01-23T17:17:56;8.07;;;6.07;;